Terminal Aerodrome Forecast
Issued by NWS Sioux Falls, SD

Home | Current Version | Previous Version | Text Only | Print | Product List | Glossary On
Versions: 1 2 3 4 5 6 7 8 9 10 11 12 13
628
FTUS43 KFSD 211120
TAFHON
TAF
KHON 211120Z 2112/2212 34023G30KT P6SM FEW250
     FM212300 33009KT P6SM SKC
     FM220400 VRB03KT P6SM FEW250=

USA.gov is the U.S. government's official web portal to all federal, state and local government web resources and services.